Soldotna, AK

12:18 PM AKDT on August 28, 2016 (GMT -0800)
W. Corral PWS | | Change Station

Elev 110 ft 60.49 °N, 151.08 °W | Updated 48 seconds ago

Clear
Clear
72.7 °F
Feels Like 77 °F
N
14.5
Wind Variable Wind from SE
Gusts 19.0 mph

Today
High -- | Low -- °F
--% Chance of Precip.
Yesterday
High -- | Low -- °F
Precip. -- in
Pressure 29.98 in
Visibility 10.0 miles
Clouds Clear
Heat Index 77 °F
Dew Point 54 °F
Humidity 52%
Rainfall 0.00 in
Snow Depth Not available.
6:50 AM 9:18 PM
Waning Crescent, 13% visible
METAR PASX 282016Z AUTO 03007G16KT 10SM CLR 20/07 A2998 RMK AO1
Pressure 29.98 in
Visibility 10.0 miles
Clouds Clear
Heat Index 77 °F
Dew Point 54 °F
Humidity 52%
Rainfall 0.00 in
Snow Depth Not available.
6:50 AM 9:18 PM
Waning Crescent, 13% visible
METAR PASX 282016Z AUTO 03007G16KT 10SM CLR 20/07 A2998 RMK AO1

10-Day Weather Forecast

Almanac

Astronomy

Aug. 28, 2016 Rise Set
Actual Time
Civil Twilight
Nautical Twilight
Astronomical Twilight
Moon
Length of Visible Light
Length of Day
Tomorrow will be .
, % of the Moon is Illuminated

Today's Extremes

State Highs State Lows

Community

WunderPhotos

Upload Photos

1,935,677 photos uploaded!

WunderBlog® & News

Nearby

Air Quality

  Air Quality AQ Index Pollutant
Not available.

Snow Depth

Station Depth Elevation

Earthquake Activity

City Distance Mag. Time & Date
Minimum magnitude displayed is 2.5.

Coastal Water Temperatures

Place Temperature

Stations

Nearby Weather Stations

Station Location Temp. Windchill Dew Point Humidity Wind Precip. Elev Updated Type
                   

Watches & Warnings

There are currently no watches in effect.